Time;durP1;ratioP1;P1;durP2;ratioP2;P2;SDS_P1;SDS_P2;PMS_P1;PMS_P2;Temp;Humidity;BMP_temperature;BMP_pressure;BME280_temperature;BME280_humidity;BME280_pressure;Samples;Min_cycle;Max_cycle;Signal;HPM_P1;HPM_P2
2022/08/17 04:16:07;;;;;;;5.07;4.30;;;23.60;99.90;;;;;;6221070;28;89291;-96
2022/08/17 04:25:47;;;;;;;6.57;4.47;;;23.60;97.50;;;;;;6212715;28;89293;-96
2022/08/17 04:32:21;;;;;;;4.07;3.67;;;23.60;96.00;;;;;;6228976;28;90512;-94
2022/08/17 04:35:29;;;;;;;6.25;4.40;;;23.60;95.90;;;;;;6218093;28;89029;-94
2022/08/17 04:38:37;;;;;;;5.65;4.20;;;23.60;95.80;;;;;;6237563;28;89684;-95
2022/08/17 04:45:02;;;;;;;4.47;4.07;;;23.60;95.90;;;;;;6215198;28;87054;-95
2022/08/17 04:48:38;;;;;;;4.70;4.00;;;23.60;95.30;;;;;;6225941;28;88046;-95
2022/08/17 04:55:27;;;;;;;4.43;4.03;;;23.60;95.20;;;;;;6237076;28;89774;-95
2022/08/17 04:58:30;;;;;;;5.22;4.68;;;23.60;95.00;;;;;;6228200;28;88289;-95
2022/08/17 05:01:35;;;;;;;5.22;4.32;;;23.60;95.10;;;;;;6209232;28;88999;-94
2022/08/17 05:04:40;;;;;;;5.65;4.45;;;23.60;95.10;;;;;;6230419;28;88165;-95
2022/08/17 05:07:44;;;;;;;6.22;4.53;;;23.60;95.20;;;;;;6233454;28;90466;-95
2022/08/17 05:10:48;;;;;;;4.70;4.30;;;23.60;95.20;;;;;;6217982;28;88295;-94
2022/08/17 05:17:12;;;;;;;5.30;4.80;;;23.60;95.30;;;;;;6227780;28;90370;-95
2022/08/17 05:20:15;;;;;;;4.47;4.07;;;23.60;95.40;;;;;;6221567;28;88233;-94
2022/08/17 05:23:20;;;;;;;5.32;4.70;;;23.60;95.50;;;;;;6230622;28;88243;-94
2022/08/17 05:26:23;;;;;;;5.30;4.80;;;23.70;95.60;;;;;;6225649;28;89076;-94
2022/08/17 05:29:33;;;;;;;5.30;4.65;;;23.60;95.60;;;;;;6232499;28;88245;-95
2022/08/17 05:32:35;;;;;;;4.75;4.35;;;23.70;95.80;;;;;;6236887;28;89693;-95
2022/08/17 05:35:41;;;;;;;5.68;4.47;;;23.70;95.80;;;;;;6223083;28;88310;-95
2022/08/17 05:38:47;;;;;;;5.18;4.65;;;23.70;96.00;;;;;;6234700;28;90202;-94
2022/08/17 05:41:49;;;;;;;6.55;4.97;;;23.70;96.20;;;;;;6236746;28;86991;-94
2022/08/17 05:44:52;;;;;;;9.15;5.20;;;23.70;96.40;;;;;;6237017;28;88450;-94
2022/08/17 05:47:54;;;;;;;6.78;5.55;;;23.70;96.70;;;;;;6225407;28;88966;-95
2022/08/17 05:51:23;;;;;;;7.15;5.57;;;23.70;96.90;;;;;;6212764;28;90124;-95
2022/08/17 05:54:55;;;;;;;6.22;5.60;;;23.70;97.40;;;;;;6221112;28;88092;-94
2022/08/17 05:58:08;;;;;;;6.15;4.95;;;23.60;97.80;;;;;;6233993;28;89599;-94
2022/08/17 06:01:21;;;;;;;6.47;5.28;;;23.70;97.90;;;;;;6214181;28;87866;-95
2022/08/17 06:04:34;;;;;;;5.25;4.78;;;23.70;98.00;;;;;;6236676;28;89626;-95
2022/08/17 06:07:46;;;;;;;7.20;5.57;;;23.70;98.50;;;;;;6238115;28;89383;-95
2022/08/17 06:11:04;;;;;;;5.80;5.28;;;23.70;98.40;;;;;;6234375;28;88801;-95
2022/08/17 06:14:29;;;;;;;5.65;5.03;;;23.70;98.40;;;;;;6238449;28;89294;-95
2022/08/17 06:17:32;;;;;;;5.47;5.00;;;23.70;98.70;;;;;;6227069;28;90233;-95
2022/08/17 06:20:42;;;;;;;5.63;4.85;;;23.70;99.20;;;;;;6239183;28;89489;-94
2022/08/17 06:23:50;;;;;;;5.70;5.03;;;23.80;99.90;;;;;;6230915;28;87979;-95
2022/08/17 06:30:17;;;;;;;7.22;5.40;;;23.80;99.70;;;;;;6230615;28;89570;-95
2022/08/17 06:33:31;;;;;;;6.97;5.20;;;23.80;99.90;;;;;;6225199;28;88230;-94
2022/08/17 06:36:49;;;;;;;6.45;4.93;;;23.90;99.90;;;;;;6231309;28;88682;-93
2022/08/17 06:43:33;;;;;;;5.30;4.80;;;23.90;99.90;;;;;;6214654;28;91467;-93
2022/08/17 06:46:40;;;;;;;6.18;4.60;;;23.90;99.90;;;;;;6236235;28;88341;-93
2022/08/17 06:49:50;;;;;;;6.55;4.82;;;23.90;99.90;;;;;;6234616;28;87955;-93
2022/08/17 06:52:59;;;;;;;6.78;5.30;;;23.90;99.90;;;;;;6221971;28;88932;-93
2022/08/17 06:56:07;;;;;;;6.60;5.15;;;24.00;99.90;;;;;;6228325;28;89101;-93
2022/08/17 07:02:45;;;;;;;5.97;4.47;;;24.00;99.90;;;;;;6235364;28;89212;-93
2022/08/17 07:05:54;;;;;;;5.15;4.75;;;24.00;99.90;;;;;;6232802;28;91413;-93
2022/08/17 07:09:02;;;;;;;5.45;4.95;;;24.00;99.90;;;;;;6213575;28;87109;-93
2022/08/17 07:12:14;;;;;;;5.28;4.68;;;24.00;99.90;;;;;;6225277;28;88027;-93
2022/08/17 07:15:24;;;;;;;5.72;4.90;;;24.10;99.90;;;;;;6231878;28;90285;-92
2022/08/17 07:18:31;;;;;;;5.07;4.68;;;24.10;99.90;;;;;;6237522;28;89536;-92
2022/08/17 07:21:47;;;;;;;6.50;5.20;;;24.10;99.90;;;;;;6230395;28;89730;-92
2022/08/17 07:24:57;;;;;;;5.10;4.57;;;24.20;99.90;;;;;;6232037;28;89020;-93
2022/08/17 07:28:01;;;;;;;4.93;4.50;;;24.10;99.90;;;;;;6227140;28;88072;-93
2022/08/17 07:31:05;;;;;;;5.50;5.00;;;24.20;99.90;;;;;;6227257;28;89008;-93
2022/08/17 07:34:13;;;;;;;5.00;4.50;;;24.10;99.90;;;;;;6227508;28;89789;-93
2022/08/17 07:37:21;;;;;;;5.63;4.85;;;24.20;99.90;;;;;;6227449;28;87253;-93
2022/08/17 07:40:32;;;;;;;5.85;4.90;;;24.20;99.90;;;;;;6225099;28;88359;-93
2022/08/17 07:43:45;;;;;;;5.15;4.72;;;24.20;99.90;;;;;;6228951;28;88378;-93
2022/08/17 07:50:29;;;;;;;5.22;4.60;;;24.30;99.90;;;;;;6240344;28;87705;-94
2022/08/17 07:53:33;;;;;;;5.10;4.60;;;24.30;99.90;;;;;;6222455;28;89473;-92
2022/08/17 07:56:42;;;;;;;5.38;4.78;;;24.20;99.90;;;;;;6236273;28;88452;-93
2022/08/17 08:03:30;;;;;;;5.13;4.57;;;24.30;99.90;;;;;;6232252;28;89539;-93
2022/08/17 08:06:42;;;;;;;4.85;4.45;;;24.30;99.90;;;;;;6247315;28;87884;-93
2022/08/17 08:09:49;;;;;;;5.38;4.60;;;24.30;99.90;;;;;;6238557;28;88760;-93
2022/08/17 08:13:12;;;;;;;4.80;4.40;;;24.30;99.90;;;;;;6223594;28;88323;-92
2022/08/17 08:16:24;;;;;;;6.35;4.72;;;24.30;99.90;;;;;;6226339;28;89128;-93
2022/08/17 08:19:31;;;;;;;6.03;4.43;;;24.30;99.90;;;;;;6230124;28;91778;-93
2022/08/17 08:22:49;;;;;;;6.25;4.57;;;24.30;99.90;;;;;;6226271;28;88984;-93
2022/08/17 08:26:00;;;;;;;6.10;4.70;;;24.30;99.90;;;;;;6232660;28;88953;-93
2022/08/17 08:32:52;;;;;;;10.50;5.40;;;24.40;99.90;;;;;;6239267;28;89387;-94
2022/08/17 08:36:03;;;;;;;8.18;4.93;;;24.30;99.90;;;;;;6213921;28;88178;-93
2022/08/17 08:39:15;;;;;;;9.73;5.22;;;24.30;99.90;;;;;;6230814;28;88395;-93
2022/08/17 08:42:26;;;;;;;6.68;5.00;;;24.40;99.90;;;;;;6245610;28;88490;-93
2022/08/17 08:45:38;;;;;;;7.38;5.10;;;24.30;99.90;;;;;;6245182;28;89061;-93
2022/08/17 08:49:03;;;;;;;5.72;4.72;;;24.30;99.90;;;;;;6238251;28;87933;-93
2022/08/17 08:52:14;;;;;;;7.80;5.00;;;24.40;99.90;;;;;;6212961;28;90180;-92
2022/08/17 08:55:22;;;;;;;7.10;4.57;;;24.30;99.90;;;;;;6233482;28;89153;-94
2022/08/17 08:58:34;;;;;;;7.10;4.93;;;24.40;99.90;;;;;;6233080;28;87568;-93
2022/08/17 09:01:45;;;;;;;6.68;4.55;;;24.40;99.90;;;;;;6215255;28;88969;-93
2022/08/17 09:05:01;;;;;;;7.38;5.47;;;24.40;99.90;;;;;;6199563;28;89028;-93
2022/08/17 09:08:13;;;;;;;5.85;4.75;;;24.40;99.90;;;;;;6235042;28;88323;-94
2022/08/17 09:11:23;;;;;;;6.05;4.80;;;24.40;99.90;;;;;;6218942;28;87604;-93
2022/08/17 09:14:32;;;;;;;4.72;4.32;;;24.40;99.90;;;;;;6217623;28;87244;-93
2022/08/17 09:17:39;;;;;;;11.60;4.95;;;24.40;99.90;;;;;;6209462;28;89019;-95
2022/08/17 09:24:16;;;;;;;5.13;4.53;;;24.40;99.90;;;;;;6221425;28;88987;-94
2022/08/17 09:27:24;;;;;;;7.00;4.78;;;24.50;99.60;;;;;;6228927;28;87821;-94
2022/08/17 09:33:48;;;;;;;5.20;4.50;;;24.40;99.90;;;;;;6229298;28;90337;-94
2022/08/17 09:36:56;;;;;;;5.65;4.65;;;24.50;99.90;;;;;;6224219;28;89160;-93
2022/08/17 09:40:11;;;;;;;5.93;4.63;;;24.50;99.90;;;;;;6241905;28;88899;-95
2022/08/17 09:43:25;;;;;;;6.28;4.70;;;24.50;99.90;;;;;;6236261;28;88112;-95
2022/08/17 09:46:32;;;;;;;7.63;5.40;;;24.60;99.90;;;;;;6227630;28;88964;-94
2022/08/17 09:49:45;;;;;;;10.05;6.78;;;24.60;99.90;;;;;;6229296;28;89236;-95
2022/08/17 09:52:50;;;;;;;6.18;5.53;;;24.50;99.90;;;;;;6238892;28;89232;-95
2022/08/17 10:03:40;;;;;;;55.13;33.42;;;24.70;99.90;;;;;;6222368;28;90530;-94
2022/08/17 10:06:53;;;;;;;253.30;112.43;;;24.70;99.90;;;;;;6211905;28;89340;-94
2022/08/17 10:10:01;;;;;;;54.80;24.27;;;24.80;99.90;;;;;;6217582;28;88998;-93
2022/08/17 10:13:10;;;;;;;46.92;23.08;;;24.90;99.90;;;;;;6221489;28;89272;-95
2022/08/17 10:16:34;;;;;;;22.92;13.07;;;24.90;99.90;;;;;;6219575;28;89076;-94
2022/08/17 10:19:40;;;;;;;13.32;8.68;;;25.00;99.90;;;;;;6224855;28;87453;-94
2022/08/17 10:26:17;;;;;;;8.38;5.80;;;25.00;98.50;;;;;;6212271;28;87256;-95
2022/08/17 10:32:58;;;;;;;7.22;6.00;;;25.00;99.90;;;;;;6219100;28;89574;-94
2022/08/17 10:36:06;;;;;;;7.53;5.85;;;25.10;98.70;;;;;;6216820;28;90881;-95
2022/08/17 10:42:49;;;;;;;7.35;5.50;;;25.10;97.60;;;;;;6240090;28;89555;-95
2022/08/17 10:46:05;;;;;;;6.90;5.60;;;25.10;97.20;;;;;;6236056;28;89655;-95
2022/08/17 10:53:00;;;;;;;8.63;5.68;;;25.10;97.10;;;;;;6231818;28;88921;-95
2022/08/17 10:56:38;;;;;;;11.70;6.85;;;25.10;97.20;;;;;;6217625;28;88760;-94
2022/08/17 10:59:57;;;;;;;9.55;6.22;;;25.10;97.20;;;;;;6224434;28;90711;-95
2022/08/17 11:02:59;;;;;;;9.75;5.93;;;25.10;97.30;;;;;;6215230;28;89017;-95
2022/08/17 11:06:13;;;;;;;9.18;5.95;;;25.10;97.00;;;;;;6224620;28;89641;-96
2022/08/17 11:09:37;;;;;;;9.32;6.43;;;25.10;96.60;;;;;;6225356;28;89449;-96
2022/08/17 11:23:57;;;;;;;15.30;7.90;;;25.00;96.20;;;;;;6201483;28;89298;-95
2022/08/17 11:30:52;;;;;;;11.05;6.90;;;25.00;96.20;;;;;;6224688;28;87276;-96
2022/08/17 11:52:12;;;;;;;7.97;5.03;;;25.10;94.60;;;;;;6220618;28;89175;-95
2022/08/17 11:55:49;;;;;;;7.22;4.70;;;25.20;93.80;;;;;;6215842;28;88010;-96
2022/08/17 11:58:51;;;;;;;5.78;4.50;;;25.10;92.80;;;;;;6231515;28;88328;-96
2022/08/17 12:01:56;;;;;;;7.13;5.53;;;25.10;93.60;;;;;;6206608;28;88644;-96
2022/08/17 12:05:13;;;;;;;8.90;5.32;;;25.10;94.20;;;;;;6206997;28;88560;-95
2022/08/17 12:08:20;;;;;;;5.70;4.65;;;25.10;94.50;;;;;;6218166;28;89209;-96
2022/08/17 12:11:28;;;;;;;9.80;5.22;;;25.10;94.60;;;;;;6222197;28;89936;-95
2022/08/17 12:14:33;;;;;;;6.32;4.90;;;25.10;94.80;;;;;;6213363;28;89422;-95
2022/08/17 12:17:36;;;;;;;7.65;5.00;;;25.10;94.40;;;;;;6217751;28;88314;-96
2022/08/17 12:20:42;;;;;;;8.02;5.10;;;25.10;94.50;;;;;;6222277;28;88443;-96
2022/08/17 12:23:57;;;;;;;6.45;4.80;;;25.00;94.20;;;;;;6213080;28;89576;-96
2022/08/17 12:27:03;;;;;;;6.28;4.65;;;25.10;93.90;;;;;;6227935;28;87341;-96
2022/08/17 12:30:13;;;;;;;5.82;4.60;;;25.00;93.60;;;;;;6228004;28;90930;-96
2022/08/17 12:33:16;;;;;;;5.25;4.60;;;25.10;93.60;;;;;;6211953;28;88037;-95
2022/08/17 12:36:23;;;;;;;7.40;4.57;;;25.10;93.30;;;;;;6216864;28;87901;-96
2022/08/17 12:39:28;;;;;;;5.30;4.38;;;25.10;93.10;;;;;;6215579;28;89528;-96
2022/08/17 12:42:33;;;;;;;5.00;3.88;;;25.10;93.00;;;;;;6229088;28;88936;-96
2022/08/17 12:45:39;;;;;;;4.45;3.90;;;25.00;92.40;;;;;;6229173;28;88280;-96
2022/08/17 12:48:41;;;;;;;5.15;4.30;;;25.10;91.90;;;;;;6227702;28;89327;-96
2022/08/17 12:51:45;;;;;;;6.03;4.40;;;25.00;91.80;;;;;;6223854;28;88956;-96
2022/08/17 12:54:53;;;;;;;5.75;4.18;;;25.10;91.80;;;;;;6221949;28;89558;-96
2022/08/17 12:57:58;;;;;;;4.80;4.30;;;25.10;91.80;;;;;;6224792;28;87946;-96
2022/08/17 13:01:08;;;;;;;5.88;4.20;;;25.10;91.90;;;;;;6209986;28;87895;-96
2022/08/17 13:04:14;;;;;;;5.88;4.30;;;25.10;91.20;;;;;;6218620;28;87001;-96
2022/08/17 13:07:27;;;;;;;8.70;4.45;;;25.10;91.40;;;;;;6222180;28;89029;-96
2022/08/17 13:10:33;;;;;;;4.70;4.20;;;25.10;91.60;;;;;;6222296;28;88924;-96
2022/08/17 13:13:41;;;;;;;4.85;3.97;;;25.10;91.50;;;;;;6213032;28;88778;-96
2022/08/17 13:16:49;;;;;;;4.57;3.78;;;25.10;91.50;;;;;;6222123;28;88071;-96
2022/08/17 13:19:51;;;;;;;5.22;3.50;;;25.10;91.30;;;;;;6232597;28;89335;-96
2022/08/17 13:22:58;;;;;;;6.78;3.72;;;25.00;90.90;;;;;;6218855;28;89488;-96
2022/08/17 13:26:05;;;;;;;4.75;3.58;;;25.10;90.60;;;;;;6220361;28;88321;-96
2022/08/17 13:29:22;;;;;;;4.78;3.72;;;25.00;90.50;;;;;;6228649;28;88344;-96
2022/08/17 13:32:35;;;;;;;5.32;3.90;;;25.10;90.50;;;;;;6229303;28;90464;-96
2022/08/17 13:35:48;;;;;;;4.03;3.63;;;25.10;90.60;;;;;;6227578;28;88525;-95
2022/08/17 13:39:04;;;;;;;4.00;3.30;;;25.10;90.80;;;;;;6218416;28;89510;-96
2022/08/17 13:42:32;;;;;;;5.35;3.85;;;25.10;89.60;;;;;;6218460;28;88423;-96
2022/08/17 13:45:46;;;;;;;6.07;3.75;;;25.10;89.30;;;;;;6226562;28;89067;-96
2022/08/17 13:48:59;;;;;;;3.97;3.42;;;25.10;90.10;;;;;;6215859;28;87951;-96
2022/08/17 13:52:01;;;;;;;4.20;3.60;;;25.10;90.00;;;;;;6228846;28;89114;-96
2022/08/17 13:55:09;;;;;;;4.72;3.47;;;25.10;89.50;;;;;;6228423;28;88055;-96
2022/08/17 13:58:19;;;;;;;5.03;3.78;;;25.10;89.90;;;;;;6231279;28;88418;-96
2022/08/17 14:01:29;;;;;;;4.90;3.30;;;25.10;90.20;;;;;;6220029;28;90705;-96
2022/08/17 14:04:32;;;;;;;4.60;3.38;;;25.10;90.10;;;;;;6214969;28;88726;-96
2022/08/17 14:07:37;;;;;;;3.47;3.17;;;25.00;89.60;;;;;;6219415;28;87213;-96
2022/08/17 14:10:39;;;;;;;3.30;3.00;;;25.10;88.80;;;;;;6231964;28;89085;-96
2022/08/17 14:13:45;;;;;;;5.43;3.72;;;25.10;87.90;;;;;;6230283;28;87125;-96
2022/08/17 14:16:48;;;;;;;3.92;3.38;;;25.10;87.30;;;;;;6213455;28;89176;-96
2022/08/17 14:19:50;;;;;;;5.15;3.42;;;25.10;85.50;;;;;;6227475;28;88296;-96
2022/08/17 14:22:54;;;;;;;4.68;3.08;;;25.10;85.50;;;;;;6223777;28;88014;-96
2022/08/17 14:25:57;;;;;;;3.15;2.83;;;25.20;85.60;;;;;;6228867;28;87244;-96
2022/08/17 14:29:00;;;;;;;4.53;2.92;;;25.20;83.70;;;;;;6229331;28;87175;-96
2022/08/17 14:32:16;;;;;;;3.60;3.30;;;25.20;82.40;;;;;;6218016;28;89395;-96
2022/08/17 14:35:21;;;;;;;5.32;3.60;;;25.20;82.10;;;;;;6217700;28;88227;-96
2022/08/17 14:38:23;;;;;;;3.83;3.05;;;25.20;84.80;;;;;;6233104;28;88134;-96
2022/08/17 14:41:25;;;;;;;4.32;3.45;;;25.20;85.60;;;;;;6210508;28;87244;-96
2022/08/17 14:44:32;;;;;;;4.28;3.30;;;25.20;85.80;;;;;;6230010;28;88357;-96
2022/08/17 14:47:34;;;;;;;5.30;3.22;;;25.20;85.10;;;;;;6224984;28;87925;-96
2022/08/17 14:50:39;;;;;;;3.60;3.20;;;25.20;84.60;;;;;;6227350;28;89148;-96
2022/08/17 14:53:42;;;;;;;3.13;2.88;;;25.20;84.50;;;;;;6227883;28;87964;-96
2022/08/17 14:56:45;;;;;;;3.40;3.10;;;25.20;84.40;;;;;;6218155;28;87111;-96
2022/08/17 14:59:50;;;;;;;3.10;2.90;;;25.10;84.20;;;;;;6229490;28;88456;-96
2022/08/17 15:02:54;;;;;;;3.78;3.00;;;25.20;83.90;;;;;;6228955;28;88431;-96
2022/08/17 15:05:57;;;;;;;4.07;3.67;;;25.20;83.40;;;;;;6210419;28;89023;-96
2022/08/17 15:09:01;;;;;;;3.60;3.30;;;25.20;83.10;;;;;;6220502;28;86399;-96
2022/08/17 15:12:05;;;;;;;3.55;3.25;;;25.20;84.50;;;;;;6221024;28;90033;-96
2022/08/17 15:15:11;;;;;;;3.33;3.03;;;25.20;83.50;;;;;;6230201;28;89100;-96
2022/08/17 15:18:13;;;;;;;3.55;3.22;;;25.20;83.50;;;;;;6221082;28;89132;-96
2022/08/17 15:21:16;;;;;;;3.20;3.00;;;25.20;83.40;;;;;;6228556;28;87237;-96
2022/08/17 15:24:19;;;;;;;3.50;3.20;;;25.20;82.90;;;;;;6215613;28;87480;-96
2022/08/17 15:27:22;;;;;;;4.82;3.10;;;25.20;82.60;;;;;;6222442;28;87127;-96
2022/08/17 15:30:27;;;;;;;3.30;3.00;;;25.20;82.10;;;;;;6224926;28;88297;-96
2022/08/17 15:33:30;;;;;;;3.92;3.20;;;25.20;81.90;;;;;;6212070;28;88339;-96
2022/08/17 15:36:33;;;;;;;3.90;3.50;;;25.20;82.20;;;;;;6231330;28;88785;-96
2022/08/17 15:39:35;;;;;;;3.35;3.05;;;25.20;82.30;;;;;;6207230;28;87520;-96
2022/08/17 15:42:39;;;;;;;3.33;2.92;;;25.20;82.70;;;;;;6217892;28;88077;-96
2022/08/17 15:45:44;;;;;;;4.18;3.20;;;25.20;82.90;;;;;;6217479;28;87127;-96
2022/08/17 15:48:48;;;;;;;3.58;3.25;;;25.20;82.70;;;;;;6215996;28;88622;-96
2022/08/17 15:51:50;;;;;;;4.30;3.33;;;25.20;82.90;;;;;;6223625;28;87258;-96
2022/08/17 15:54:54;;;;;;;3.50;3.20;;;25.20;83.10;;;;;;6225565;28;88300;-96
2022/08/17 15:57:56;;;;;;;3.63;3.10;;;25.20;83.00;;;;;;6230361;28;86863;-96
2022/08/17 16:01:04;;;;;;;3.42;3.13;;;25.20;82.00;;;;;;6228489;28;89397;-96
2022/08/17 16:04:06;;;;;;;3.60;3.30;;;25.20;81.60;;;;;;6227657;28;88057;-96
2022/08/17 16:07:08;;;;;;;3.75;3.35;;;25.20;81.90;;;;;;6207649;28;87987;-96
2022/08/17 16:10:11;;;;;;;3.83;3.38;;;25.20;82.10;;;;;;6207662;28;88447;-96
2022/08/17 16:13:17;;;;;;;3.95;3.47;;;25.20;82.40;;;;;;6226981;28;87081;-96
2022/08/17 16:16:22;;;;;;;4.05;3.25;;;25.30;82.50;;;;;;6217145;28;88345;-96
2022/08/17 16:19:24;;;;;;;3.42;3.10;;;25.30;82.10;;;;;;6228177;28;88883;-96
2022/08/17 16:22:32;;;;;;;3.40;3.10;;;25.30;82.20;;;;;;6226625;28;88241;-96
2022/08/17 16:25:34;;;;;;;3.75;3.20;;;25.30;82.00;;;;;;6224110;28;87036;-96
2022/08/17 16:28:36;;;;;;;4.43;2.78;;;25.20;81.90;;;;;;6229371;28;88302;-96
2022/08/17 16:31:40;;;;;;;3.88;3.40;;;25.30;82.70;;;;;;6227204;28;87079;-96
2022/08/17 16:34:43;;;;;;;3.30;3.00;;;25.30;81.70;;;;;;6205520;28;87113;-96
2022/08/17 16:37:46;;;;;;;4.30;3.28;;;25.30;80.90;;;;;;6230668;28;87022;-96
2022/08/17 16:40:49;;;;;;;3.20;2.90;;;25.30;80.60;;;;;;6223356;28;86080;-96
2022/08/17 16:43:51;;;;;;;3.60;2.92;;;25.30;80.60;;;;;;6230001;28;88312;-96
2022/08/17 16:46:56;;;;;;;4.03;3.08;;;25.30;80.50;;;;;;6221601;28;87141;-96
2022/08/17 16:49:59;;;;;;;3.15;2.85;;;25.30;80.70;;;;;;6218969;28;87744;-96
2022/08/17 16:53:06;;;;;;;3.58;3.28;;;25.30;80.90;;;;;;6219330;28;88154;-96
2022/08/17 16:56:08;;;;;;;4.63;3.45;;;25.30;81.10;;;;;;6225219;28;88388;-96
2022/08/17 16:59:11;;;;;;;3.80;3.28;;;25.30;82.20;;;;;;6220494;28;87110;-96
2022/08/17 17:02:16;;;;;;;4.40;3.30;;;25.30;81.70;;;;;;6211544;28;88319;-96
2022/08/17 17:05:33;;;;;;;4.30;3.38;;;25.30;82.10;;;;;;6220843;28;88122;-96
2022/08/17 17:08:37;;;;;;;3.63;3.33;;;25.30;82.30;;;;;;6212291;28;87088;-96
2022/08/17 17:11:44;;;;;;;3.83;3.30;;;25.30;82.60;;;;;;6220553;28;88120;-96
2022/08/17 17:14:50;;;;;;;4.28;3.92;;;25.30;82.90;;;;;;6226027;28;87085;-96
2022/08/17 17:18:01;;;;;;;5.20;4.75;;;25.30;83.30;;;;;;6217897;28;87166;-96
2022/08/17 17:21:10;;;;;;;5.30;4.30;;;25.30;83.60;;;;;;6222293;28;89305;-96
2022/08/17 17:24:17;;;;;;;4.40;4.00;;;25.20;83.40;;;;;;6218169;28;88459;-96
2022/08/17 17:27:31;;;;;;;4.63;4.22;;;25.30;83.50;;;;;;6228368;28;86849;-96
2022/08/17 17:30:47;;;;;;;4.70;4.30;;;25.30;83.60;;;;;;6225392;28;87217;-96
2022/08/17 17:33:55;;;;;;;6.20;4.28;;;25.20;83.80;;;;;;6228528;28;87988;-96
2022/08/17 17:37:02;;;;;;;4.18;3.88;;;25.20;84.20;;;;;;6224440;28;88411;-96
2022/08/17 17:40:12;;;;;;;4.10;3.70;;;25.20;85.10;;;;;;6224164;28;88316;-96
2022/08/17 17:43:19;;;;;;;5.32;4.70;;;25.30;84.40;;;;;;6219619;28;86021;-96
2022/08/17 17:46:26;;;;;;;4.45;4.05;;;25.20;85.00;;;;;;6233904;28;87993;-96
2022/08/17 17:49:34;;;;;;;4.30;3.70;;;25.30;85.30;;;;;;6222117;28;86981;-96
2022/08/17 17:52:46;;;;;;;5.07;3.97;;;25.20;85.40;;;;;;6209220;28;87924;-96
2022/08/17 17:55:59;;;;;;;4.50;4.10;;;25.20;85.80;;;;;;6219383;28;87728;-96
2022/08/17 17:59:08;;;;;;;4.30;3.67;;;25.20;86.50;;;;;;6209826;28;87385;-96
2022/08/17 18:06:00;;;;;;;3.75;3.45;;;25.20;89.30;;;;;;6207460;28;88546;-96
2022/08/17 18:09:17;;;;;;;4.57;3.42;;;25.20;90.00;;;;;;6208794;28;87257;-96
2022/08/17 18:12:29;;;;;;;3.90;3.50;;;25.20;90.10;;;;;;6232334;28;87285;-96
2022/08/17 18:15:37;;;;;;;3.60;3.30;;;25.20;90.20;;;;;;6231687;28;88346;-96
2022/08/17 18:18:43;;;;;;;3.47;3.17;;;25.20;90.30;;;;;;6233609;28;88216;-96
2022/08/17 18:21:51;;;;;;;3.50;3.20;;;25.20;90.40;;;;;;6217229;28;88190;-96
2022/08/17 18:24:56;;;;;;;4.55;3.60;;;25.20;90.40;;;;;;6208909;28;90203;-96
2022/08/17 18:27:58;;;;;;;4.53;3.67;;;25.20;90.50;;;;;;6207654;28;88270;-96
2022/08/17 18:31:11;;;;;;;3.65;3.35;;;25.20;90.70;;;;;;6216778;28;88219;-96
2022/08/17 18:34:24;;;;;;;4.00;3.60;;;25.10;90.90;;;;;;6223889;28;88395;-96
2022/08/17 18:37:41;;;;;;;4.03;3.70;;;25.10;90.90;;;;;;6220695;28;88232;-96
2022/08/17 18:40:43;;;;;;;3.88;3.58;;;25.10;90.90;;;;;;6221034;28;88092;-96
2022/08/17 18:43:59;;;;;;;3.67;3.38;;;25.10;91.20;;;;;;6223877;28;88735;-96
2022/08/17 18:47:13;;;;;;;3.88;3.58;;;25.10;91.60;;;;;;6219603;28;87321;-96
2022/08/17 18:50:24;;;;;;;4.13;3.80;;;25.10;91.80;;;;;;6230426;28;88384;-96
2022/08/17 18:53:37;;;;;;;3.83;3.53;;;25.10;91.70;;;;;;6226410;28;86986;-96
2022/08/17 18:56:42;;;;;;;4.00;3.60;;;25.10;91.80;;;;;;6219183;28;88291;-96
2022/08/17 18:59:47;;;;;;;3.90;3.47;;;25.10;92.20;;;;;;6207809;28;89676;-96
2022/08/17 19:02:54;;;;;;;4.18;3.78;;;25.00;92.40;;;;;;6231054;28;87182;-96
2022/08/17 19:06:17;;;;;;;5.65;3.75;;;25.10;92.70;;;;;;6228882;28;88512;-96
2022/08/17 19:09:33;;;;;;;4.80;4.05;;;25.10;92.90;;;;;;6227673;28;88361;-96
2022/08/17 19:12:41;;;;;;;4.45;4.05;;;25.00;93.30;;;;;;6216795;28;87374;-96
2022/08/17 19:15:49;;;;;;;4.68;4.18;;;25.00;92.90;;;;;;6216543;28;88244;-95
2022/08/17 19:18:58;;;;;;;4.20;3.60;;;25.00;93.20;;;;;;6218488;28;87210;-96
2022/08/17 19:22:13;;;;;;;3.75;3.45;;;25.00;93.20;;;;;;6208516;28;88054;-96
2022/08/17 19:25:23;;;;;;;5.68;3.90;;;25.00;93.20;;;;;;6208794;28;87903;-96
2022/08/17 19:28:32;;;;;;;4.38;3.97;;;25.00;93.40;;;;;;6208472;28;90337;-96
2022/08/17 19:31:35;;;;;;;4.00;3.65;;;25.00;93.50;;;;;;6209708;28;88089;-96
2022/08/17 19:34:43;;;;;;;6.35;4.50;;;25.00;93.60;;;;;;6209486;28;89039;-95
2022/08/17 19:37:59;;;;;;;5.07;4.10;;;25.00;94.40;;;;;;6210362;28;90179;-95
2022/08/17 19:41:11;;;;;;;6.78;4.82;;;25.00;94.20;;;;;;6210148;28;87141;-96
2022/08/17 19:44:31;;;;;;;7.70;5.50;;;25.00;93.90;;;;;;6209559;28;88492;-96
2022/08/17 19:47:38;;;;;;;7.10;5.13;;;25.00;92.70;;;;;;6209384;28;89158;-96
2022/08/17 19:50:53;;;;;;;5.85;5.18;;;25.00;92.40;;;;;;6210318;28;86185;-96
2022/08/17 19:54:03;;;;;;;7.07;5.00;;;25.00;93.10;;;;;;6209418;28;89387;-95
2022/08/17 19:57:16;;;;;;;7.22;5.43;;;25.00;93.60;;;;;;6209220;28;89835;-96
2022/08/17 20:00:22;;;;;;;6.20;5.38;;;25.00;93.70;;;;;;6215210;28;90105;-95
2022/08/17 20:03:34;;;;;;;5.47;4.95;;;25.00;93.70;;;;;;6215779;28;89443;-95
2022/08/17 20:06:45;;;;;;;5.35;4.80;;;25.00;93.60;;;;;;6213243;28;87066;-94
2022/08/17 20:09:52;;;;;;;5.35;4.85;;;25.00;93.50;;;;;;6215914;28;89141;-96
2022/08/17 20:13:05;;;;;;;7.82;4.85;;;25.00;93.50;;;;;;6216245;28;89649;-95
2022/08/17 20:19:32;;;;;;;5.70;5.20;;;25.00;93.60;;;;;;6219414;28;89458;-96
2022/08/17 20:22:40;;;;;;;5.78;5.18;;;25.00;93.70;;;;;;6219750;28;88372;-95
2022/08/17 20:41:45;;;;;;;5.28;4.53;;;25.00;93.80;;;;;;6222717;28;90402;-96
2022/08/17 20:44:51;;;;;;;5.93;4.30;;;25.00;93.70;;;;;;6216431;28;89483;-96
2022/08/17 20:47:57;;;;;;;5.60;4.47;;;25.00;93.30;;;;;;6221521;28;89373;-96
2022/08/17 20:55:18;;;;;;;;;;;;;;;;;;;;;
2022/08/17 20:58:45;;;;;;;5.50;5.00;;;24.90;92.90;;;;;;6219231;28;113832;-95
2022/08/17 21:59:01;;;;;;;4.68;4.00;;;24.80;90.60;;;;;;6220247;28;89332;-96
2022/08/17 22:38:30;;;;;;;4.05;3.40;;;24.70;90.70;;;;;;6216420;28;89469;-96
2022/08/17 23:41:05;;;;;;;4.00;3.70;;;24.70;91.20;;;;;;6221875;28;89283;-96
